Time;durP1;ratioP1;P1;durP2;ratioP2;P2;SDS_P1;SDS_P2;PMS_P1;PMS_P2;Temp;Humidity;BMP_temperature;BMP_pressure;BME280_temperature;BME280_humidity;BME280_pressure;Samples;Min_cycle;Max_cycle;Signal;HPM_P1;HPM_P2
2022/09/28 00:01:53;;;;;;;23.13;16.83;;;;;;;;;;5070680;28;20027;-81
2022/09/28 00:04:19;;;;;;;22.48;15.15;;;;;;;;;;5071661;28;20099;-79
2022/09/28 00:06:46;;;;;;;17.38;13.70;;;;;;;;;;5070999;28;20052;-79
2022/09/28 00:09:14;;;;;;;24.55;17.30;;;;;;;;;;5071152;28;20039;-79
2022/09/28 00:11:42;;;;;;;24.55;19.33;;;;;;;;;;5072333;28;20516;-80
2022/09/28 00:14:10;;;;;;;22.67;17.10;;;;;;;;;;5059387;28;20051;-79
2022/09/28 00:16:38;;;;;;;24.27;18.67;;;;;;;;;;5052496;28;20120;-80
2022/09/28 00:19:05;;;;;;;29.63;18.88;;;;;;;;;;5050954;28;20017;-80
2022/09/28 00:21:32;;;;;;;20.50;15.32;;;;;;;;;;5051703;28;20057;-81
2022/09/28 00:24:11;;;;;;;18.40;15.25;;;;;;;;;;5053029;28;20028;-80
2022/09/28 00:26:39;;;;;;;23.65;17.33;;;;;;;;;;5053050;28;20025;-80
2022/09/28 00:29:05;;;;;;;23.58;17.88;;;;;;;;;;5053950;28;20017;-79
2022/09/28 00:31:33;;;;;;;24.58;17.30;;;;;;;;;;5053066;28;20029;-79
2022/09/28 00:33:59;;;;;;;25.92;20.60;;;;;;;;;;5068107;28;20059;-79
2022/09/28 00:36:27;;;;;;;23.58;17.77;;;;;;;;;;5051760;28;20052;-81
2022/09/28 00:38:55;;;;;;;27.98;19.77;;;;;;;;;;5050489;28;20533;-79
2022/09/28 00:41:23;;;;;;;22.02;16.42;;;;;;;;;;5064668;28;20024;-79
2022/09/28 00:43:49;;;;;;;24.30;19.35;;;;;;;;;;5071328;28;20016;-79
2022/09/28 00:46:21;;;;;;;23.85;18.30;;;;;;;;;;5071860;28;20111;-80
2022/09/28 00:48:51;;;;;;;25.23;19.65;;;;;;;;;;5051345;28;20025;-80
2022/09/28 00:51:18;;;;;;;23.20;16.98;;;;;;;;;;5049858;28;20039;-80
2022/09/28 00:53:44;;;;;;;24.75;18.90;;;;;;;;;;5048974;28;20045;-80
2022/09/28 00:56:12;;;;;;;25.00;19.25;;;;;;;;;;5050754;28;20429;-80
2022/09/28 00:58:41;;;;;;;28.55;21.42;;;;;;;;;;5050545;28;20106;-80
2022/09/28 01:01:07;;;;;;;26.88;19.15;;;;;;;;;;5049502;28;20203;-80
2022/09/28 01:03:33;;;;;;;26.50;20.63;;;;;;;;;;5050337;28;20479;-81
2022/09/28 01:06:01;;;;;;;29.80;20.60;;;;;;;;;;5049933;28;20102;-79
2022/09/28 01:08:28;;;;;;;26.23;19.92;;;;;;;;;;5059479;28;20111;-80
2022/09/28 01:10:54;;;;;;;25.92;18.67;;;;;;;;;;5070796;28;20036;-79
2022/09/28 01:13:22;;;;;;;28.20;19.20;;;;;;;;;;5070336;28;20067;-80
2022/09/28 01:15:54;;;;;;;25.30;16.20;;;;;;;;;;5068553;28;20086;-81
2022/09/28 01:18:43;;;;;;;28.17;22.45;;;;;;;;;;5049578;28;20100;-80
2022/09/28 01:21:14;;;;;;;26.30;18.70;;;;;;;;;;5048132;28;20450;-81
2022/09/28 01:23:52;;;;;;;31.42;20.10;;;;;;;;;;5050571;28;20021;-80
2022/09/28 01:26:31;;;;;;;26.67;21.63;;;;;;;;;;5054987;28;20039;-81
2022/09/28 01:29:01;;;;;;;21.87;16.43;;;;;;;;;;5083502;28;20028;-80
2022/09/28 01:31:34;;;;;;;29.10;21.15;;;;;;;;;;5075720;28;20020;-80
2022/09/28 01:34:03;;;;;;;28.67;21.38;;;;;;;;;;5066604;28;20037;-80
2022/09/28 01:36:33;;;;;;;30.85;22.70;;;;;;;;;;5049994;28;20084;-80
2022/09/28 01:39:02;;;;;;;27.60;20.20;;;;;;;;;;5050292;28;20025;-81
2022/09/28 01:41:32;;;;;;;29.60;21.50;;;;;;;;;;5051910;28;20111;-80
2022/09/28 01:44:01;;;;;;;28.20;19.90;;;;;;;;;;5047893;28;20155;-81
2022/09/28 01:46:33;;;;;;;25.57;19.93;;;;;;;;;;5053845;28;20064;-80
2022/09/28 01:49:09;;;;;;;23.27;17.77;;;;;;;;;;5053945;28;20036;-81
2022/09/28 01:51:39;;;;;;;24.35;19.20;;;;;;;;;;5049929;28;20130;-81
2022/09/28 01:54:09;;;;;;;23.75;15.70;;;;;;;;;;5049478;28;20036;-80
2022/09/28 01:56:38;;;;;;;28.23;20.63;;;;;;;;;;5052035;28;20102;-80
2022/09/28 01:59:11;;;;;;;24.00;17.95;;;;;;;;;;5067911;28;20032;-80
2022/09/28 02:01:43;;;;;;;25.35;19.08;;;;;;;;;;5049364;28;20133;-81
2022/09/28 02:04:21;;;;;;;25.23;18.58;;;;;;;;;;5064148;28;20495;-80
2022/09/28 02:06:53;;;;;;;23.98;17.50;;;;;;;;;;5069094;28;20029;-80
2022/09/28 02:09:22;;;;;;;24.20;18.00;;;;;;;;;;5069800;28;20025;-80
2022/09/28 02:11:51;;;;;;;26.05;19.42;;;;;;;;;;5069810;28;20043;-81
2022/09/28 02:14:21;;;;;;;29.70;19.20;;;;;;;;;;5069072;28;20044;-81
2022/09/28 02:16:49;;;;;;;27.10;18.52;;;;;;;;;;5067998;28;20032;-81
2022/09/28 02:19:20;;;;;;;28.40;20.10;;;;;;;;;;5053519;28;20072;-81
2022/09/28 02:21:49;;;;;;;31.10;21.00;;;;;;;;;;5048684;28;20104;-81
2022/09/28 02:24:17;;;;;;;30.42;19.45;;;;;;;;;;5049791;28;20488;-81
2022/09/28 02:26:46;;;;;;;23.27;16.77;;;;;;;;;;5052827;28;20021;-80
2022/09/28 02:29:12;;;;;;;29.02;19.83;;;;;;;;;;5052671;28;20053;-81
2022/09/28 02:31:38;;;;;;;28.25;21.02;;;;;;;;;;5052595;28;20048;-80
2022/09/28 02:34:04;;;;;;;32.28;22.90;;;;;;;;;;5057103;28;20111;-81
2022/09/28 02:36:31;;;;;;;23.70;17.98;;;;;;;;;;5072310;28;20555;-81
2022/09/28 02:38:57;;;;;;;32.05;22.63;;;;;;;;;;5057933;28;20079;-80
2022/09/28 02:41:48;;;;;;;30.95;22.77;;;;;;;;;;5052386;28;20025;-81
2022/09/28 02:44:33;;;;;;;27.77;20.40;;;;;;;;;;5051838;28;20025;-81
2022/09/28 02:47:15;;;;;;;31.83;21.23;;;;;;;;;;5052884;28;20068;-81
2022/09/28 02:50:04;;;;;;;29.63;21.85;;;;;;;;;;5053108;28;20542;-79
2022/09/28 02:52:54;;;;;;;32.22;21.83;;;;;;;;;;5053431;28;20037;-80
2022/09/28 02:55:20;;;;;;;27.20;18.33;;;;;;;;;;5071197;28;20036;-79
2022/09/28 02:57:47;;;;;;;32.47;20.33;;;;;;;;;;5070458;28;20039;-80
2022/09/28 03:00:21;;;;;;;28.15;20.23;;;;;;;;;;5070818;28;20025;-80
2022/09/28 03:03:06;;;;;;;27.50;19.48;;;;;;;;;;5072240;28;20028;-80
2022/09/28 03:05:42;;;;;;;27.05;18.83;;;;;;;;;;5072389;28;20081;-80
2022/09/28 03:08:16;;;;;;;28.67;18.73;;;;;;;;;;5069817;28;20548;-80
2022/09/28 03:10:46;;;;;;;26.83;19.95;;;;;;;;;;5071431;28;20522;-81
2022/09/28 03:13:13;;;;;;;23.02;17.35;;;;;;;;;;5071565;28;20121;-81
2022/09/28 03:15:40;;;;;;;26.92;20.70;;;;;;;;;;5070520;28;20135;-80
2022/09/28 03:18:07;;;;;;;25.38;18.00;;;;;;;;;;5052742;28;20032;-80
2022/09/28 03:20:34;;;;;;;23.52;18.48;;;;;;;;;;5052255;28;20053;-81
2022/09/28 03:23:00;;;;;;;20.15;15.60;;;;;;;;;;5050754;28;20110;-81
2022/09/28 03:25:26;;;;;;;24.50;17.77;;;;;;;;;;5052162;28;20053;-82
2022/09/28 03:27:52;;;;;;;26.10;18.95;;;;;;;;;;5051764;28;20496;-81
2022/09/28 03:30:19;;;;;;;25.98;18.63;;;;;;;;;;5051520;28;20506;-81
2022/09/28 03:32:45;;;;;;;27.00;18.55;;;;;;;;;;5051679;28;20032;-81
2022/09/28 03:35:11;;;;;;;26.88;20.20;;;;;;;;;;5065029;28;20036;-81
2022/09/28 03:37:37;;;;;;;26.08;19.90;;;;;;;;;;5064980;28;20021;-82
2022/09/28 03:40:04;;;;;;;24.52;16.67;;;;;;;;;;5051315;28;20025;-82
2022/09/28 03:42:30;;;;;;;22.00;15.43;;;;;;;;;;5050380;28;20452;-81
2022/09/28 03:44:57;;;;;;;21.38;15.88;;;;;;;;;;5070459;28;20036;-80
2022/09/28 03:47:23;;;;;;;21.05;15.43;;;;;;;;;;5071107;28;20033;-81
2022/09/28 03:49:49;;;;;;;24.38;16.50;;;;;;;;;;5071162;28;20078;-81
2022/09/28 03:52:15;;;;;;;24.25;17.23;;;;;;;;;;5070853;28;20036;-81
2022/09/28 03:54:41;;;;;;;19.38;12.75;;;;;;;;;;5071540;28;20082;-82
2022/09/28 03:57:07;;;;;;;22.92;16.20;;;;;;;;;;5070558;28;20521;-80
2022/09/28 03:59:36;;;;;;;18.00;13.43;;;;;;;;;;5069991;28;20051;-82
2022/09/28 04:02:02;;;;;;;20.20;14.45;;;;;;;;;;5071521;28;20032;-81
2022/09/28 04:04:28;;;;;;;22.60;15.15;;;;;;;;;;5053850;28;20017;-80
2022/09/28 04:06:54;;;;;;;17.63;12.20;;;;;;;;;;5051221;28;20040;-81
2022/09/28 04:09:20;;;;;;;15.23;11.07;;;;;;;;;;5050983;28;20765;-81
2022/09/28 04:11:47;;;;;;;17.65;12.80;;;;;;;;;;5063563;28;20028;-81
2022/09/28 04:14:13;;;;;;;17.42;12.80;;;;;;;;;;5069564;28;20037;-81
2022/09/28 04:16:39;;;;;;;21.63;13.20;;;;;;;;;;5068374;28;20029;-81
2022/09/28 04:19:05;;;;;;;13.73;10.15;;;;;;;;;;5055216;28;20036;-81
2022/09/28 04:21:31;;;;;;;15.68;10.98;;;;;;;;;;5069000;28;20135;-81
2022/09/28 04:23:58;;;;;;;12.65;9.05;;;;;;;;;;5056397;28;20582;-80
2022/09/28 04:26:25;;;;;;;15.80;10.93;;;;;;;;;;5050270;28;20028;-81
2022/09/28 04:31:39;;;;;;;13.70;9.63;;;;;;;;;;5050994;28;20051;-81
2022/09/28 04:34:05;;;;;;;31.38;11.35;;;;;;;;;;5054543;28;20029;-81
2022/09/28 04:36:31;;;;;;;15.10;10.20;;;;;;;;;;5069354;28;20123;-81
2022/09/28 04:38:57;;;;;;;13.77;10.60;;;;;;;;;;5069426;28;20407;-81
2022/09/28 04:41:24;;;;;;;20.05;10.73;;;;;;;;;;5070154;28;20065;-80
2022/09/28 04:43:50;;;;;;;14.35;11.10;;;;;;;;;;5069827;28;20419;-81
2022/09/28 04:46:16;;;;;;;15.63;10.10;;;;;;;;;;5060247;28;20074;-81
2022/09/28 04:48:42;;;;;;;13.35;9.55;;;;;;;;;;5050378;28;20025;-81
2022/09/28 04:51:08;;;;;;;13.30;9.75;;;;;;;;;;5050142;28;20086;-81
2022/09/28 04:53:34;;;;;;;15.40;10.05;;;;;;;;;;5065221;28;20029;-81
2022/09/28 04:56:04;;;;;;;13.60;9.93;;;;;;;;;;5070501;28;20032;-82
2022/09/28 04:58:31;;;;;;;13.27;10.35;;;;;;;;;;5070724;28;20060;-81
2022/09/28 05:00:58;;;;;;;17.15;10.18;;;;;;;;;;5068847;28;20124;-79
2022/09/28 05:03:24;;;;;;;11.85;8.68;;;;;;;;;;5070335;28;20068;-80
2022/09/28 05:05:50;;;;;;;13.68;9.35;;;;;;;;;;5069836;28;20039;-79
2022/09/28 05:08:17;;;;;;;15.73;10.77;;;;;;;;;;5057967;28;20052;-80
2022/09/28 05:10:43;;;;;;;15.05;9.93;;;;;;;;;;5069991;28;20020;-80
2022/09/28 05:13:09;;;;;;;17.30;10.65;;;;;;;;;;5055474;28;20032;-80
2022/09/28 05:15:36;;;;;;;13.98;10.20;;;;;;;;;;5053544;28;20028;-81
2022/09/28 05:18:04;;;;;;;15.10;10.57;;;;;;;;;;5055554;28;20029;-80
2022/09/28 05:20:31;;;;;;;12.13;9.48;;;;;;;;;;5051758;28;20037;-80
2022/09/28 05:22:57;;;;;;;11.82;8.77;;;;;;;;;;5056778;28;20059;-80
2022/09/28 05:25:24;;;;;;;13.32;9.43;;;;;;;;;;5054764;28;20106;-80
2022/09/28 05:27:57;;;;;;;15.05;10.52;;;;;;;;;;5051581;28;20033;-80
2022/09/28 05:30:24;;;;;;;14.10;10.27;;;;;;;;;;5051305;28;20025;-81
2022/09/28 05:32:50;;;;;;;16.52;10.15;;;;;;;;;;5052720;28;20024;-81
2022/09/28 05:35:17;;;;;;;14.90;10.15;;;;;;;;;;5052856;28;20036;-81
2022/09/28 05:37:43;;;;;;;19.08;11.95;;;;;;;;;;5059168;28;20028;-82
2022/09/28 05:40:09;;;;;;;14.77;9.93;;;;;;;;;;5051827;28;20021;-81
2022/09/28 05:42:35;;;;;;;15.00;10.40;;;;;;;;;;5051228;28;20028;-82
2022/09/28 05:45:05;;;;;;;16.38;10.25;;;;;;;;;;5051199;28;20037;-80
2022/09/28 05:47:36;;;;;;;16.75;9.52;;;;;;;;;;5050297;28;20056;-80
2022/09/28 05:50:02;;;;;;;14.32;10.98;;;;;;;;;;5050129;28;20029;-80
2022/09/28 05:52:28;;;;;;;14.35;10.15;;;;;;;;;;5052359;28;20083;-81
2022/09/28 05:54:54;;;;;;;19.50;10.70;;;;;;;;;;5054431;28;20033;-80
2022/09/28 05:57:20;;;;;;;11.10;9.13;;;;;;;;;;5050025;28;20573;-80
2022/09/28 05:59:46;;;;;;;11.57;8.75;;;;;;;;;;5052158;28;20148;-81
2022/09/28 06:02:12;;;;;;;13.40;8.77;;;;;;;;;;5052909;28;20712;-81
2022/09/28 06:04:38;;;;;;;14.60;9.23;;;;;;;;;;5056873;28;20100;-80
2022/09/28 06:07:04;;;;;;;13.82;9.65;;;;;;;;;;5055061;28;20434;-81
2022/09/28 06:09:30;;;;;;;15.63;13.02;;;;;;;;;;5071270;28;20063;-81
2022/09/28 06:12:00;;;;;;;24.92;18.35;;;;;;;;;;5056606;28;20024;-80
2022/09/28 06:14:26;;;;;;;19.67;12.38;;;;;;;;;;5065092;28;20106;-79
2022/09/28 06:16:52;;;;;;;16.50;12.73;;;;;;;;;;5054391;28;20033;-81
2022/09/28 06:19:18;;;;;;;13.73;9.57;;;;;;;;;;5058308;28;20051;-82
2022/09/28 06:21:44;;;;;;;17.15;11.93;;;;;;;;;;5052741;28;20140;-82
2022/09/28 06:24:10;;;;;;;23.20;13.85;;;;;;;;;;5053508;28;20127;-81
2022/09/28 06:26:36;;;;;;;21.27;15.77;;;;;;;;;;5053865;28;20091;-82
2022/09/28 06:29:02;;;;;;;19.63;14.13;;;;;;;;;;5065281;28;20028;-82
2022/09/28 06:31:30;;;;;;;17.75;11.35;;;;;;;;;;5057431;28;20378;-82
2022/09/28 06:33:56;;;;;;;15.98;9.50;;;;;;;;;;5065830;28;20021;-83
2022/09/28 06:36:22;;;;;;;15.05;9.52;;;;;;;;;;5073294;28;20051;-83
2022/09/28 06:38:48;;;;;;;10.90;9.13;;;;;;;;;;5072765;28;20471;-80
2022/09/28 06:41:15;;;;;;;11.90;7.80;;;;;;;;;;5072055;28;20031;-81
2022/09/28 06:43:41;;;;;;;12.10;8.80;;;;;;;;;;5080954;28;20032;-81
2022/09/28 06:46:10;;;;;;;11.07;8.90;;;;;;;;;;5071486;28;20086;-80
2022/09/28 06:48:36;;;;;;;12.50;8.45;;;;;;;;;;5062661;28;20025;-81
2022/09/28 06:51:03;;;;;;;11.00;8.30;;;;;;;;;;5068995;28;20414;-80
2022/09/28 06:53:29;;;;;;;11.40;8.00;;;;;;;;;;5062121;28;20041;-80
2022/09/28 06:55:56;;;;;;;11.27;8.45;;;;;;;;;;5052401;28;20044;-80
2022/09/28 06:58:22;;;;;;;8.27;6.57;;;;;;;;;;5056981;28;20017;-81
2022/09/28 07:00:50;;;;;;;12.10;7.55;;;;;;;;;;5064731;28;20029;-81
2022/09/28 07:03:21;;;;;;;8.85;6.20;;;;;;;;;;5071906;28;20032;-81
2022/09/28 07:05:52;;;;;;;8.25;6.18;;;;;;;;;;5051567;28;20033;-81
2022/09/28 07:08:19;;;;;;;9.07;6.53;;;;;;;;;;5065899;28;20031;-81
2022/09/28 07:10:46;;;;;;;14.80;7.75;;;;;;;;;;5070510;28;20090;-81
2022/09/28 07:13:13;;;;;;;10.85;5.82;;;;;;;;;;5075732;28;20403;-78
2022/09/28 07:15:39;;;;;;;7.43;4.82;;;;;;;;;;5070311;28;20039;-78
2022/09/28 07:18:06;;;;;;;7.30;4.50;;;;;;;;;;5051586;28;20141;-78
2022/09/28 07:20:33;;;;;;;10.00;5.07;;;;;;;;;;5050501;28;20025;-78
2022/09/28 07:23:00;;;;;;;6.55;3.70;;;;;;;;;;5051282;28;20048;-78
2022/09/28 07:25:29;;;;;;;5.75;3.63;;;;;;;;;;5055549;28;20032;-78
2022/09/28 07:28:03;;;;;;;4.85;2.30;;;;;;;;;;5060204;28;20024;-78
2022/09/28 07:30:32;;;;;;;8.02;3.67;;;;;;;;;;5061585;28;20021;-78
2022/09/28 07:32:58;;;;;;;6.85;3.42;;;;;;;;;;5069660;28;20041;-78
2022/09/28 07:35:24;;;;;;;3.28;1.77;;;;;;;;;;5064590;28;20395;-79
2022/09/28 07:38:02;;;;;;;5.90;2.50;;;;;;;;;;5069792;28;20031;-79
2022/09/28 07:43:13;;;;;;;11.90;5.75;;;;;;;;;;5055052;28;20412;-77
2022/09/28 07:45:40;;;;;;;4.40;1.98;;;;;;;;;;5051638;28;20044;-78
2022/09/28 07:48:06;;;;;;;5.00;1.35;;;;;;;;;;5058449;28;20028;-78
2022/09/28 07:50:32;;;;;;;3.75;1.70;;;;;;;;;;5070247;28;20066;-78
2022/09/28 07:52:59;;;;;;;4.78;1.42;;;;;;;;;;5068811;28;20028;-78
2022/09/28 07:55:25;;;;;;;1.88;1.10;;;;;;;;;;5070941;28;20032;-79
2022/09/28 07:57:55;;;;;;;2.90;1.38;;;;;;;;;;5070576;28;20032;-79
2022/09/28 08:00:21;;;;;;;3.50;1.55;;;;;;;;;;5066025;28;20048;-79
2022/09/28 08:02:47;;;;;;;6.65;1.30;;;;;;;;;;5064481;28;20401;-78
2022/09/28 08:05:13;;;;;;;3.22;1.25;;;;;;;;;;5070061;28;20029;-78
2022/09/28 08:07:39;;;;;;;2.15;1.05;;;;;;;;;;5051561;28;20025;-79
2022/09/28 08:10:06;;;;;;;3.00;1.00;;;;;;;;;;5050255;28;20039;-79
2022/09/28 08:12:32;;;;;;;1.45;0.95;;;;;;;;;;5050472;28;20028;-78
2022/09/28 08:14:58;;;;;;;3.47;0.90;;;;;;;;;;5069835;28;20044;-78
2022/09/28 08:17:25;;;;;;;5.03;1.15;;;;;;;;;;5068450;28;20025;-78
2022/09/28 08:22:36;;;;;;;2.25;0.93;;;;;;;;;;5065644;28;20052;-78
2022/09/28 08:25:02;;;;;;;1.88;0.80;;;;;;;;;;5056818;28;20115;-78
2022/09/28 08:27:28;;;;;;;1.80;0.80;;;;;;;;;;5068782;28;20036;-79
2022/09/28 08:29:54;;;;;;;4.32;1.00;;;;;;;;;;5049758;28;20082;-79
2022/09/28 08:32:20;;;;;;;2.33;0.90;;;;;;;;;;5053876;28;20055;-78
2022/09/28 08:34:46;;;;;;;2.55;0.95;;;;;;;;;;5060432;28;20098;-77
2022/09/28 08:37:13;;;;;;;2.53;0.90;;;;;;;;;;5050175;28;20021;-79
2022/09/28 08:39:39;;;;;;;3.65;0.88;;;;;;;;;;5050411;28;20035;-78
2022/09/28 08:42:14;;;;;;;2.40;0.98;;;;;;;;;;5049696;28;20025;-78
2022/09/28 08:44:56;;;;;;;2.63;0.95;;;;;;;;;;5050246;28;20685;-79
2022/09/28 08:50:31;;;;;;;3.47;1.00;;;;;;;;;;5066074;28;20090;-80
2022/09/28 08:53:05;;;;;;;3.60;0.82;;;;;;;;;;5067889;28;20029;-79
2022/09/28 08:55:33;;;;;;;2.15;0.95;;;;;;;;;;5067437;28;20032;-78
2022/09/28 08:58:03;;;;;;;2.38;0.90;;;;;;;;;;5067744;28;20016;-78
2022/09/28 09:00:33;;;;;;;5.15;0.93;;;;;;;;;;5068318;28;20031;-79
2022/09/28 09:03:02;;;;;;;2.72;1.10;;;;;;;;;;5070895;28;20032;-78
2022/09/28 09:05:39;;;;;;;1.80;0.70;;;;;;;;;;5070813;28;20028;-78
2022/09/28 09:08:19;;;;;;;2.58;0.60;;;;;;;;;;5070410;28;20040;-79
2022/09/28 09:10:53;;;;;;;3.92;0.90;;;;;;;;;;5068670;28;20202;-79
2022/09/28 09:13:27;;;;;;;3.45;0.80;;;;;;;;;;5069046;28;20039;-78
2022/09/28 09:15:59;;;;;;;5.13;0.95;;;;;;;;;;5069557;28;20059;-78
2022/09/28 09:18:34;;;;;;;2.75;0.60;;;;;;;;;;5069101;28;20090;-78
2022/09/28 09:21:07;;;;;;;3.88;0.85;;;;;;;;;;5069326;28;20105;-78
2022/09/28 09:23:36;;;;;;;1.85;0.80;;;;;;;;;;5067870;28;20079;-78
2022/09/28 09:26:17;;;;;;;3.55;0.70;;;;;;;;;;5069020;28;20091;-78
2022/09/28 09:28:49;;;;;;;3.42;0.70;;;;;;;;;;5069405;28;20056;-79
2022/09/28 09:31:22;;;;;;;3.10;0.80;;;;;;;;;;5069164;28;20024;-78
2022/09/28 09:33:59;;;;;;;3.22;0.85;;;;;;;;;;5066293;28;20028;-78
2022/09/28 09:36:39;;;;;;;2.20;0.40;;;;;;;;;;5051324;28;20387;-79
2022/09/28 09:39:21;;;;;;;1.48;0.55;;;;;;;;;;5059402;28;20885;-78
2022/09/28 09:42:05;;;;;;;1.98;0.60;;;;;;;;;;5051969;28;20398;-78
2022/09/28 09:44:37;;;;;;;2.08;0.50;;;;;;;;;;5049326;28;20036;-78
2022/09/28 09:47:07;;;;;;;2.30;0.70;;;;;;;;;;5047569;28;20026;-78
2022/09/28 09:49:39;;;;;;;1.27;0.40;;;;;;;;;;5049143;28;20021;-78
2022/09/28 09:52:24;;;;;;;0.95;0.50;;;;;;;;;;5049113;28;20025;-79
2022/09/28 09:54:52;;;;;;;1.83;0.45;;;;;;;;;;5048964;28;20383;-79
2022/09/28 09:57:19;;;;;;;0.50;0.32;;;;;;;;;;5049096;28;20083;-78
2022/09/28 09:59:45;;;;;;;1.65;0.30;;;;;;;;;;5048234;28;20051;-78
2022/09/28 10:02:25;;;;;;;1.02;0.40;;;;;;;;;;5050648;28;20025;-78
2022/09/28 10:04:59;;;;;;;2.90;0.65;;;;;;;;;;5049558;28;20021;-78
2022/09/28 10:07:29;;;;;;;0.77;0.30;;;;;;;;;;5048721;28;20021;-78
2022/09/28 10:09:57;;;;;;;2.67;0.40;;;;;;;;;;5049029;28;20358;-78
2022/09/28 10:12:23;;;;;;;1.77;0.30;;;;;;;;;;5059003;28;20539;-79
2022/09/28 10:14:49;;;;;;;1.23;0.55;;;;;;;;;;5050498;28;20074;-79
2022/09/28 10:17:17;;;;;;;1.65;0.52;;;;;;;;;;5049416;28;20045;-78
2022/09/28 10:19:43;;;;;;;1.75;0.70;;;;;;;;;;5049272;28;20025;-78
2022/09/28 10:22:13;;;;;;;1.80;0.40;;;;;;;;;;5049521;28;20052;-78
2022/09/28 10:24:41;;;;;;;1.55;0.45;;;;;;;;;;5051893;28;20051;-79
2022/09/28 10:27:11;;;;;;;4.68;0.75;;;;;;;;;;5058798;28;20186;-77
2022/09/28 10:29:41;;;;;;;2.30;0.52;;;;;;;;;;5067197;28;20027;-78
2022/09/28 10:32:20;;;;;;;1.17;0.40;;;;;;;;;;5068377;28;20074;-77
2022/09/28 10:34:47;;;;;;;1.88;0.47;;;;;;;;;;5057434;28;20502;-78
2022/09/28 10:37:13;;;;;;;0.73;0.30;;;;;;;;;;5048881;28;20025;-78
2022/09/28 10:39:47;;;;;;;0.95;0.30;;;;;;;;;;5048226;28;20047;-78
2022/09/28 10:42:18;;;;;;;2.42;0.40;;;;;;;;;;5047783;28;20029;-79
2022/09/28 10:44:56;;;;;;;3.28;0.38;;;;;;;;;;5049012;28;20025;-79
2022/09/28 10:47:23;;;;;;;2.30;0.50;;;;;;;;;;5051262;28;20440;-79
2022/09/28 10:49:51;;;;;;;1.30;0.43;;;;;;;;;;5051880;28;20025;-78
2022/09/28 10:52:29;;;;;;;1.77;0.40;;;;;;;;;;5052750;28;20036;-79
2022/09/28 10:54:55;;;;;;;1.60;0.50;;;;;;;;;;5051948;28;20086;-78
2022/09/28 10:57:29;;;;;;;1.58;0.55;;;;;;;;;;5052127;28;20104;-78
2022/09/28 10:59:55;;;;;;;0.80;0.30;;;;;;;;;;5052108;28;20025;-78
2022/09/28 11:02:25;;;;;;;2.72;0.50;;;;;;;;;;5052295;28;20032;-78
2022/09/28 11:04:56;;;;;;;2.42;0.30;;;;;;;;;;5052294;28;20040;-80
2022/09/28 11:07:23;;;;;;;4.38;0.73;;;;;;;;;;5052394;28;20400;-79
2022/09/28 11:09:50;;;;;;;0.88;0.40;;;;;;;;;;5051433;28;20515;-79
2022/09/28 11:12:19;;;;;;;1.20;0.47;;;;;;;;;;5052056;28;20035;-78
2022/09/28 11:14:47;;;;;;;1.52;0.65;;;;;;;;;;5052285;28;20047;-78
2022/09/28 11:17:30;;;;;;;0.98;0.40;;;;;;;;;;5051978;28;20475;-79
2022/09/28 11:19:58;;;;;;;0.85;0.20;;;;;;;;;;5050552;28;20034;-79
2022/09/28 11:22:33;;;;;;;0.43;0.20;;;;;;;;;;5049811;28;20053;-78
2022/09/28 11:25:17;;;;;;;3.50;0.40;;;;;;;;;;5050051;28;20017;-79
2022/09/28 11:27:52;;;;;;;2.13;0.40;;;;;;;;;;5051480;28;20425;-79
2022/09/28 11:30:27;;;;;;;2.83;0.60;;;;;;;;;;5051224;28;20055;-78
2022/09/28 11:33:03;;;;;;;1.65;0.60;;;;;;;;;;5051166;28;20417;-79
2022/09/28 11:35:32;;;;;;;1.10;0.40;;;;;;;;;;5067794;28;20059;-79
2022/09/28 11:37:58;;;;;;;0.73;0.20;;;;;;;;;;5071430;28;20563;-78
2022/09/28 11:40:40;;;;;;;0.90;0.50;;;;;;;;;;5071010;28;20103;-79
2022/09/28 11:43:31;;;;;;;0.90;0.28;;;;;;;;;;5071404;28;20028;-80
2022/09/28 11:46:22;;;;;;;0.28;0.20;;;;;;;;;;5071235;28;20040;-79
2022/09/28 11:48:54;;;;;;;0.45;0.30;;;;;;;;;;5070771;28;20025;-79
2022/09/28 11:51:24;;;;;;;0.30;0.22;;;;;;;;;;5070881;28;20039;-79
2022/09/28 11:54:01;;;;;;;1.92;0.40;;;;;;;;;;5070429;28;20020;-79
2022/09/28 11:56:47;;;;;;;1.08;0.40;;;;;;;;;;5070883;28;20506;-79
2022/09/28 11:59:17;;;;;;;1.63;0.40;;;;;;;;;;5070953;28;20460;-77
2022/09/28 12:01:46;;;;;;;1.40;0.52;;;;;;;;;;5071351;28;20029;-79
2022/09/28 12:04:13;;;;;;;1.87;0.43;;;;;;;;;;5071231;28;20059;-79
2022/09/28 12:06:42;;;;;;;0.40;0.22;;;;;;;;;;5070931;28;20024;-79
2022/09/28 12:09:15;;;;;;;1.85;0.50;;;;;;;;;;5070093;28;20107;-79
2022/09/28 12:11:43;;;;;;;2.10;0.30;;;;;;;;;;5071198;28;20101;-78
2022/09/28 12:14:13;;;;;;;0.57;0.32;;;;;;;;;;5070621;28;20541;-77
2022/09/28 12:16:47;;;;;;;1.15;0.38;;;;;;;;;;5060373;28;20036;-78
2022/09/28 12:19:20;;;;;;;0.20;0.20;;;;;;;;;;5050615;28;20421;-79
2022/09/28 12:21:50;;;;;;;0.55;0.38;;;;;;;;;;5056558;28;20041;-82
2022/09/28 12:24:23;;;;;;;1.60;0.60;;;;;;;;;;5067485;28;20036;-81
2022/09/28 12:27:01;;;;;;;0.50;0.20;;;;;;;;;;5069990;28;20501;-82
2022/09/28 12:29:47;;;;;;;1.58;0.45;;;;;;;;;;5067917;28;20109;-80
2022/09/28 12:32:16;;;;;;;1.10;0.40;;;;;;;;;;5053439;28;20090;-80
2022/09/28 12:34:43;;;;;;;1.80;0.50;;;;;;;;;;5062258;28;20075;-80
2022/09/28 12:37:12;;;;;;;3.00;0.57;;;;;;;;;;5065659;28;20025;-78
2022/09/28 12:39:47;;;;;;;0.70;0.50;;;;;;;;;;5067139;28;20031;-80
2022/09/28 12:42:13;;;;;;;3.58;0.45;;;;;;;;;;5068913;28;20074;-79
2022/09/28 12:44:58;;;;;;;1.75;0.43;;;;;;;;;;5060365;28;20383;-79
2022/09/28 12:47:41;;;;;;;1.45;0.43;;;;;;;;;;5060747;28;20627;-80
2022/09/28 12:50:26;;;;;;;2.88;0.50;;;;;;;;;;5060254;28;20272;-81
2022/09/28 12:53:06;;;;;;;1.23;0.40;;;;;;;;;;5055755;28;20498;-80
2022/09/28 12:55:34;;;;;;;1.38;0.40;;;;;;;;;;5056579;28;20111;-80
2022/09/28 12:58:07;;;;;;;3.25;1.83;;;;;;;;;;5057972;28;20052;-80
2022/09/28 13:00:38;;;;;;;3.13;1.33;;;;;;;;;;5054128;28;20054;-81
2022/09/28 13:03:06;;;;;;;1.27;0.50;;;;;;;;;;5059934;28;20044;-79
2022/09/28 13:05:48;;;;;;;0.63;0.32;;;;;;;;;;5058598;28;20048;-80
2022/09/28 13:08:22;;;;;;;0.40;0.28;;;;;;;;;;5059487;28;20020;-80
2022/09/28 13:10:54;;;;;;;0.77;0.30;;;;;;;;;;5059302;28;20024;-80
2022/09/28 13:13:27;;;;;;;1.25;0.40;;;;;;;;;;5058757;28;20040;-80
2022/09/28 13:15:58;;;;;;;4.05;0.65;;;;;;;;;;5057057;28;20029;-80
2022/09/28 13:18:26;;;;;;;1.90;0.30;;;;;;;;;;5059473;28;20017;-80
2022/09/28 13:20:58;;;;;;;2.13;0.40;;;;;;;;;;5057841;28;20028;-80
2022/09/28 13:23:30;;;;;;;2.10;0.47;;;;;;;;;;5056017;28;20072;-80
2022/09/28 13:26:03;;;;;;;1.15;0.38;;;;;;;;;;5057671;28;20029;-79
2022/09/28 13:28:31;;;;;;;4.30;0.90;;;;;;;;;;5058023;28;20021;-79
2022/09/28 13:30:58;;;;;;;3.42;1.05;;;;;;;;;;5056587;28;20066;-78
2022/09/28 13:33:29;;;;;;;9.65;2.08;;;;;;;;;;5057595;28;20063;-79
2022/09/28 13:35:55;;;;;;;8.40;4.22;;;;;;;;;;5055561;28;20025;-79
2022/09/28 13:38:28;;;;;;;12.70;4.30;;;;;;;;;;5056296;28;20029;-80
2022/09/28 13:41:03;;;;;;;6.03;0.80;;;;;;;;;;5053921;28;20020;-75
2022/09/28 13:43:32;;;;;;;3.03;0.40;;;;;;;;;;5063806;28;20090;-76
2022/09/28 13:46:03;;;;;;;5.47;1.23;;;;;;;;;;5062354;28;20108;-76
2022/09/28 13:48:47;;;;;;;4.03;1.00;;;;;;;;;;5060970;28;20032;-75
2022/09/28 13:51:22;;;;;;;8.73;1.52;;;;;;;;;;5054200;28;20514;-77
2022/09/28 13:53:54;;;;;;;5.25;1.50;;;;;;;;;;5056640;28;20542;-77
2022/09/28 13:56:23;;;;;;;2.03;0.88;;;;;;;;;;5057605;28;20040;-77
2022/09/28 13:58:53;;;;;;;2.65;0.75;;;;;;;;;;5054101;28;20037;-76
2022/09/28 14:01:26;;;;;;;3.03;0.67;;;;;;;;;;5054185;28;20509;-74
2022/09/28 14:03:53;;;;;;;2.42;1.30;;;;;;;;;;5057270;28;20294;-76
2022/09/28 14:06:30;;;;;;;2.55;1.05;;;;;;;;;;5054998;28;20573;-77
2022/09/28 14:09:17;;;;;;;4.20;1.20;;;;;;;;;;5058943;28;20021;-76
2022/09/28 14:11:59;;;;;;;2.90;1.48;;;;;;;;;;5055722;28;20048;-76
2022/09/28 14:14:28;;;;;;;3.88;1.40;;;;;;;;;;5058683;28;20041;-76
2022/09/28 14:17:20;;;;;;;2.95;1.00;;;;;;;;;;5057319;28;20083;-76
2022/09/28 14:19:51;;;;;;;2.72;1.13;;;;;;;;;;5057768;28;20586;-76
2022/09/28 14:22:23;;;;;;;5.15;1.10;;;;;;;;;;5060293;28;20044;-78
2022/09/28 14:24:52;;;;;;;1.90;0.95;;;;;;;;;;5058277;28;20028;-76
2022/09/28 14:27:54;;;;;;;2.95;1.27;;;;;;;;;;5062693;28;20494;-76
2022/09/28 14:30:25;;;;;;;2.97;1.55;;;;;;;;;;5057010;28;20052;-79
2022/09/28 14:32:58;;;;;;;3.75;1.20;;;;;;;;;;5060167;28;20047;-79
2022/09/28 14:35:30;;;;;;;3.72;1.30;;;;;;;;;;5060531;28;20029;-81
2022/09/28 14:41:12;;;;;;;2.28;1.08;;;;;;;;;;5062833;28;20035;-80
2022/09/28 14:43:45;;;;;;;4.10;0.90;;;;;;;;;;5061699;28;20119;-79
2022/09/28 14:46:15;;;;;;;2.47;0.80;;;;;;;;;;5062974;28;20028;-79
2022/09/28 14:48:45;;;;;;;;;;;;;;;;;;5067110;28;20084;-80
2022/09/28 14:51:20;;;;;;;2.80;0.95;;;;;;;;;;5063095;28;19909;-79
2022/09/28 14:53:49;;;;;;;2.90;1.00;;;;;;;;;;5064220;28;20135;-81
2022/09/28 14:56:16;;;;;;;3.38;1.45;;;;;;;;;;5067336;28;20385;-80
2022/09/28 14:58:42;;;;;;;5.13;2.13;;;;;;;;;;5064518;28;20025;-78
2022/09/28 15:01:18;;;;;;;2.75;1.45;;;;;;;;;;5070027;28;20032;-80
2022/09/28 15:03:46;;;;;;;3.03;1.60;;;;;;;;;;5070840;28;20016;-79